Observation data for Northfield on 06/25/2019      Previous  Date  Next       Current Mesonet Observations  Soil Data  Daily Summary Page  Observations in Plain Language
KNOR 250500Z 11009KT 24/18 A2992 RMK A01 T02430179  RH  071%=      5-min Rain = 0
KNOR 250505Z 12010G15KT 24/18 A2992 RMK A01 T02420181  RH  072%=      5-min Rain = 0
KNOR 250510Z 12009G14KT 24/18 A2992 RMK A01 T02420183  RH  073%=      5-min Rain = 0
KNOR 250515Z 12009G14KT 24/18 A2992 RMK A01 T02410184  RH  074%=      5-min Rain = 0
KNOR 250520Z 11008KT 24/19 A2992 RMK A01 T02400185  RH  075%=      5-min Rain = 0
KNOR 250525Z 12008G13KT 24/19 A2992 RMK A01 T02390186  RH  076%=      5-min Rain = 0
KNOR 250530Z 12008KT 24/19 A2992 RMK A01 T02380187  RH  077%=      5-min Rain = 0
KNOR 250535Z 12008KT 24/19 A2992 RMK A01 T02370188  RH  078%=      5-min Rain = 0
KNOR 250540Z 13008KT 24/19 A2992 RMK A01 T02360189  RH  079%=      5-min Rain = 0
KNOR 250545Z 13007KT 24/19 A2992 RMK A01 T02360190  RH  080%=      5-min Rain = 0
KNOR 250550Z 13007KT 24/19 A2992 RMK A01 T02360191  RH  080%=      5-min Rain = 0
KNOR 250555Z 12007KT 24/19 A2992 RMK A01 T02370192  RH  080%=      5-min Rain = 0
KNOR 250600Z 12007KT 24/19 A2992 RMK A01 T02350192  RH  081%=      5-min Rain = 0
KNOR 250605Z 12007KT 23/19 A2992 RMK A01 T02340192  RH  082%=      5-min Rain = 0
KNOR 250610Z 13005KT 23/19 A2991 RMK A01 T02330192  RH  082%=      5-min Rain = 0
KNOR 250615Z 13006KT 23/19 A2991 RMK A01 T02310192  RH  083%=      5-min Rain = 0
KNOR 250620Z 12005KT 23/19 A2991 RMK A01 T02300192  RH  084%=      5-min Rain = 0
KNOR 250625Z 12004KT 23/19 A2992 RMK A01 T02280192  RH  085%=      5-min Rain = 0
KNOR 250630Z 12005KT 23/19 A2992 RMK A01 T02270192  RH  085%=      5-min Rain = 0
KNOR 250635Z 12005KT 23/19 A2991 RMK A01 T02260192  RH  086%=      5-min Rain = 0
KNOR 250640Z 12005KT 23/19 A2991 RMK A01 T02250192  RH  086%=      5-min Rain = 0
KNOR 250645Z 11005KT 22/19 A2992 RMK A01 T02240192  RH  087%=      5-min Rain = 0
KNOR 250650Z 12005KT 22/19 A2992 RMK A01 T02230192  RH  088%=      5-min Rain = 0
KNOR 250655Z 12005KT 22/19 A2992 RMK A01 T02220192  RH  088%=      5-min Rain = 0
KNOR 250700Z 11006KT 22/19 A2992 RMK A01 T02220193  RH  088%=      5-min Rain = 0
KNOR 250705Z 12005KT 22/19 A2991 RMK A01 T02220193  RH  088%=      5-min Rain = 0
KNOR 250710Z 12005KT 22/19 A2991 RMK A01 T02200192  RH  089%=      5-min Rain = 0
KNOR 250715Z 12004KT 22/19 A2992 RMK A01 T02190192  RH  089%=      5-min Rain = 0
KNOR 250720Z 11004KT 22/19 A2991 RMK A01 T02180192  RH  090%=      5-min Rain = 0
KNOR 250725Z 11004KT 22/19 A2991 RMK A01 T02170191  RH  091%=      5-min Rain = 0
KNOR 250730Z 12005KT 22/19 A2991 RMK A01 T02160192  RH  091%=      5-min Rain = 0
KNOR 250735Z 12005KT 22/19 A2991 RMK A01 T02150191  RH  091%=      5-min Rain = 0
KNOR 250740Z 11006KT 22/19 A2991 RMK A01 T02150192  RH  092%=      5-min Rain = 0
KNOR 250745Z 12005KT 21/19 A2991 RMK A01 T02140192  RH  092%=      5-min Rain = 0
KNOR 250750Z 10005KT 21/19 A2991 RMK A01 T02140192  RH  092%=      5-min Rain = 0
KNOR 250755Z 11004KT 21/19 A2992 RMK A01 T02130192  RH  093%=      5-min Rain = 0
KNOR 250800Z 12005KT 21/19 A2992 RMK A01 T02130192  RH  093%=      5-min Rain = 0
KNOR 250805Z 12005KT 21/19 A2992 RMK A01 T02120191  RH  093%=      5-min Rain = 0
KNOR 250810Z 11005KT 21/19 A2992 RMK A01 T02110191  RH  093%=      5-min Rain = 0
KNOR 250815Z 11005KT 21/19 A2992 RMK A01 T02110191  RH  094%=      5-min Rain = 0
KNOR 250820Z 12005KT 21/19 A2992 RMK A01 T02100191  RH  094%=      5-min Rain = 0
KNOR 250825Z 12005KT 21/19 A2992 RMK A01 T02100191  RH  094%=      5-min Rain = 0
KNOR 250830Z 12005KT 21/19 A2992 RMK A01 T02100191  RH  094%=      5-min Rain = 0
KNOR 250835Z 12005KT 21/19 A2992 RMK A01 T02090191  RH  095%=      5-min Rain = 0
KNOR 250840Z 12005KT 21/19 A2992 RMK A01 T02090191  RH  095%=      5-min Rain = 0
KNOR 250845Z 12005KT 21/19 A2992 RMK A01 T02090191  RH  095%=      5-min Rain = 0
KNOR 250850Z 11005KT 21/19 A2992 RMK A01 T02080191  RH  095%=      5-min Rain = 0
KNOR 250855Z 11004KT 21/19 A2992 RMK A01 T02070191  RH  095%=      5-min Rain = 0
KNOR 250900Z 12005KT 21/19 A2992 RMK A01 T02080191  RH  095%=      5-min Rain = 0
KNOR 250905Z 12005KT 21/19 A2992 RMK A01 T02080191  RH  096%=      5-min Rain = 0
KNOR 250910Z 11005KT 21/19 A2992 RMK A01 T02070191  RH  096%=      5-min Rain = 0
KNOR 250915Z 10004KT 21/19 A2992 RMK A01 T02060190  RH  096%=      5-min Rain = 0
KNOR 250920Z 10004KT 21/19 A2992 RMK A01 T02070191  RH  096%=      5-min Rain = 0
KNOR 250925Z 10004KT 21/19 A2992 RMK A01 T02070191  RH  096%=      5-min Rain = 0
KNOR 250930Z 10004KT 21/19 A2993 RMK A01 T02060190  RH  096%=      5-min Rain = 0
KNOR 250935Z 10003KT 21/19 A2993 RMK A01 T02050190  RH  096%=      5-min Rain = 0
KNOR 250940Z 11003KT 21/19 A2993 RMK A01 T02050190  RH  096%=      5-min Rain = 0
KNOR 250945Z 10003KT 21/19 A2993 RMK A01 T02050190  RH  096%=      5-min Rain = 0
KNOR 250950Z 08003KT 20/19 A2993 RMK A01 T02030189  RH  096%=      5-min Rain = 0
KNOR 250955Z 09003KT 20/19 A2993 RMK A01 T02030188  RH  096%=      5-min Rain = 0
KNOR 251000Z 11003KT 20/19 A2994 RMK A01 T02030189  RH  097%=      5-min Rain = 0
KNOR 251005Z 13003KT 21/19 A2994 RMK A01 T02050191  RH  097%=      5-min Rain = 0
KNOR 251010Z 13003KT 21/19 A2994 RMK A01 T02050191  RH  097%=      5-min Rain = 0
KNOR 251015Z 10003KT 21/19 A2994 RMK A01 T02050191  RH  097%=      5-min Rain = 0
KNOR 251020Z 10004KT 21/19 A2994 RMK A01 T02050191  RH  097%=      5-min Rain = 0
KNOR 251025Z 12003KT 21/19 A2994 RMK A01 T02060193  RH  097%=      5-min Rain = 0
KNOR 251030Z 12002KT 21/19 A2994 RMK A01 T02080194  RH  097%=      5-min Rain = 0
KNOR 251035Z 12003KT 21/20 A2994 RMK A01 T02090196  RH  097%=      5-min Rain = 0
KNOR 251040Z 11003KT 21/20 A2994 RMK A01 T02080195  RH  097%=      5-min Rain = 0
KNOR 251045Z 11002KT 21/19 A2994 RMK A01 T02080194  RH  097%=      5-min Rain = 0
KNOR 251050Z 13002KT 21/19 A2995 RMK A01 T02080194  RH  097%=      5-min Rain = 0
KNOR 251055Z 15001KT 21/19 A2995 RMK A01 T02080194  RH  097%=      5-min Rain = 0
KNOR 251100Z 16003KT 21/19 A2995 RMK A01 T02070194  RH  097%=      5-min Rain = 0
KNOR 251105Z 15003KT 21/19 A2995 RMK A01 T02060193  RH  097%=      5-min Rain = 0
KNOR 251110Z 15002KT 21/19 A2995 RMK A01 T02060193  RH  098%=      5-min Rain = 0
KNOR 251115Z 14002KT 21/19 A2995 RMK A01 T02050192  RH  098%=      5-min Rain = 0
KNOR 251120Z 14001KT 20/19 A2996 RMK A01 T02030191  RH  098%=      5-min Rain = 0
KNOR 251125Z 17000KT 20/19 A2996 RMK A01 T02020189  RH  098%=      5-min Rain = 0
KNOR 251130Z 22000KT 20/19 A2996 RMK A01 T02000188  RH  098%=      5-min Rain = 0
KNOR 251135Z 23002KT 20/19 A2996 RMK A01 T02000188  RH  098%=      5-min Rain = 0
KNOR 251140Z 24002KT 20/19 A2996 RMK A01 T01990187  RH  098%=      5-min Rain = 0
KNOR 251145Z 25002KT 20/19 A2996 RMK A01 T02000187  RH  098%=      5-min Rain = 0
KNOR 251150Z 24002KT 20/19 A2997 RMK A01 T01990187  RH  098%=      5-min Rain = 0
KNOR 251155Z 24002KT 20/19 A2997 RMK A01 T01990187  RH  098%=      5-min Rain = 0
KNOR 251200Z 24002KT 20/19 A2997 RMK A01 T01980186  RH  098%=      5-min Rain = 0
KNOR 251205Z 21001KT 20/19 A2997 RMK A01 T01970186  RH  098%=      5-min Rain = 0
KNOR 251210Z 20002KT 20/19 A2997 RMK A01 T01960185  RH  098%=      5-min Rain = 0
KNOR 251215Z 19003KT 20/18 A2997 RMK A01 T01960184  RH  098%=      5-min Rain = 0
KNOR 251220Z 20002KT 20/18 A2997 RMK A01 T01950184  RH  098%=      5-min Rain = 0
KNOR 251225Z 20001KT 20/18 A2997 RMK A01 T01950183  RH  098%=      5-min Rain = 0
KNOR 251230Z 20001KT 20/19 A2997 RMK A01 T01960185  RH  098%=      5-min Rain = 0
KNOR 251235Z 20002KT 20/19 A2997 RMK A01 T01970186  RH  098%=      5-min Rain = 0
KNOR 251240Z 19002KT 20/19 A2997 RMK A01 T01980187  RH  098%=      5-min Rain = 0
KNOR 251245Z 17001KT 20/19 A2997 RMK A01 T02010189  RH  098%=      5-min Rain = 0
KNOR 251250Z 08001KT 20/19 A2997 RMK A01 T02020191  RH  098%=      5-min Rain = 0
KNOR 251255Z 09001KT 20/19 A2997 RMK A01 T02040192  RH  098%=      5-min Rain = 0
KNOR 251300Z 10001KT 20/19 A2997 RMK A01 T02030192  RH  098%=      5-min Rain = 0
KNOR 251305Z 07001KT 20/19 A2997 RMK A01 T02040193  RH  098%=      5-min Rain = 0
KNOR 251310Z 12001KT 20/19 A2998 RMK A01 T02040193  RH  098%=      5-min Rain = 0
KNOR 251315Z 16001KT 20/19 A2998 RMK A01 T02030191  RH  098%=      5-min Rain = 0
KNOR 251320Z 19001KT 20/19 A2998 RMK A01 T02030191  RH  098%=      5-min Rain = 0
KNOR 251325Z 17003KT 20/19 A2999 RMK A01 T02040192  RH  098%=      5-min Rain = 0
KNOR 251330Z 17003KT 21/20 A2999 RMK A01 T02100196  RH  097%=      5-min Rain = 0
KNOR 251335Z 17004KT 21/19 A2999 RMK A01 T02140190  RH  091%=      5-min Rain = 0
KNOR 251340Z 19004KT 23/18 A2999 RMK A01 T02270176  RH  076%=      5-min Rain = 0
KNOR 251345Z 18005KT 24/17 A30 RMK A01 T02380172  RH  070%=      5-min Rain = 0
KNOR 251350Z 18005KT 24/17 A30 RMK A01 T02410166  RH  066%=      5-min Rain = 0
KNOR 251355Z 17005KT 25/16 A30 RMK A01 T02450163  RH  063%=      5-min Rain = 0
KNOR 251400Z 16004KT 25/16 A30 RMK A01 T02460161  RH  062%=      5-min Rain = 0
KNOR 251405Z 17003KT 25/16 A30 RMK A01 T02490159  RH  060%=      5-min Rain = 0
KNOR 251410Z 15004KT 25/17 A30 RMK A01 T02520168  RH  063%=      5-min Rain = 0
KNOR 251415Z 16004KT 25/16 A30 RMK A01 T02540164  RH  061%=      5-min Rain = 0
KNOR 251420Z 17004KT 25/16 A30 RMK A01 T02540163  RH  060%=      5-min Rain = 0
KNOR 251425Z 22005KT 26/16 A2999 RMK A01 T02550156  RH  057%=      5-min Rain = 0
KNOR 251430Z 26004KT 26/15 A2999 RMK A01 T02580149  RH  053%=      5-min Rain = 0
KNOR 251435Z 22004KT 26/15 A2999 RMK A01 T02590153  RH  054%=      5-min Rain = 0
KNOR 251440Z 22005KT 27/15 A2999 RMK A01 T02650152  RH  052%=      5-min Rain = 0
KNOR 251445Z 22004KT 26/15 A2999 RMK A01 T02640149  RH  051%=      5-min Rain = 0
KNOR 251450Z 24005KT 27/15 A30 RMK A01 T02650150  RH  051%=      5-min Rain = 0
KNOR 251455Z 24004G10KT 27/15 A30 RMK A01 T02660152  RH  052%=      5-min Rain = 0
KNOR 251500Z 25008KT 27/15 A2999 RMK A01 T02690152  RH  051%=      5-min Rain = 0
KNOR 251505Z 24008KT 27/15 A2999 RMK A01 T02710150  RH  050%=      5-min Rain = 0
KNOR 251510Z 24007G12KT 27/15 A2999 RMK A01 T02720149  RH  049%=      5-min Rain = 0
KNOR 251515Z 25009G14KT 27/15 A2999 RMK A01 T02720148  RH  049%=      5-min Rain = 0
KNOR 251520Z 24008KT 28/15 A2999 RMK A01 T02750151  RH  049%=      5-min Rain = 0
KNOR 251525Z 26007KT 28/15 A2999 RMK A01 T02750150  RH  049%=      5-min Rain = 0
KNOR 251530Z 27008KT 28/15 A2998 RMK A01 T02790154  RH  049%=      5-min Rain = 0
KNOR 251535Z 26010G15KT 28/15 A2998 RMK A01 T02800153  RH  048%=      5-min Rain = 0
KNOR 251540Z 25007KT 28/15 A2998 RMK A01 T02790153  RH  048%=      5-min Rain = 0
KNOR 251545Z 25009KT 28/16 A2998 RMK A01 T02830155  RH  048%=      5-min Rain = 0
KNOR 251550Z 27007KT 29/16 A2998 RMK A01 T02880158  RH  047%=      5-min Rain = 0
KNOR 251555Z 24009KT 29/16 A2998 RMK A01 T02860156  RH  047%=      5-min Rain = 0
KNOR 251600Z 22009KT 29/16 A2998 RMK A01 T02860155  RH  047%=      5-min Rain = 0
KNOR 251605Z 24007KT 29/16 A2998 RMK A01 T02880157  RH  047%=      5-min Rain = 0
KNOR 251610Z 25007G12KT 29/16 A2998 RMK A01 T02880156  RH  047%=      5-min Rain = 0
KNOR 251615Z 23005KT 29/16 A2999 RMK A01 T02910157  RH  046%=      5-min Rain = 0
KNOR 251620Z 23005KT 29/16 A2999 RMK A01 T02920156  RH  046%=      5-min Rain = 0
KNOR 251625Z 21007KT 29/16 A2999 RMK A01 T02930157  RH  046%=      5-min Rain = 0
KNOR 251630Z 21004KT 29/16 A2999 RMK A01 T02940157  RH  046%=      5-min Rain = 0
KNOR 251635Z 20005G10KT 30/16 A2999 RMK A01 T02990159  RH  045%=      5-min Rain = 0
KNOR 251640Z 23004KT 30/16 A2999 RMK A01 T02970159  RH  045%=      5-min Rain = 0
KNOR 251645Z 23004G9KT 30/16 A2999 RMK A01 T03000157  RH  044%=      5-min Rain = 0
KNOR 251650Z 19004G9KT 30/16 A2998 RMK A01 T03010157  RH  044%=      5-min Rain = 0
KNOR 251655Z 20004G10KT 30/16 A2998 RMK A01 T03020157  RH  043%=      5-min Rain = 0
KNOR 251700Z 23005G10KT 30/16 A2998 RMK A01 T03040158  RH  043%=      5-min Rain = 0
KNOR 251705Z 21006G11KT 31/16 A2998 RMK A01 T03060160  RH  043%=      5-min Rain = 0
KNOR 251710Z 22004G9KT 31/16 A2998 RMK A01 T03050156  RH  043%=      5-min Rain = 0
KNOR 251715Z 21006KT 31/16 A2998 RMK A01 T03110161  RH  042%=      5-min Rain = 0
KNOR 251720Z 20006KT 32/16 A2998 RMK A01 T03150161  RH  041%=      5-min Rain = 0
KNOR 251725Z 19005KT 32/16 A2998 RMK A01 T03160160  RH  041%=      5-min Rain = 0
KNOR 251730Z 19003G9KT 32/16 A2998 RMK A01 T03160159  RH  041%=      5-min Rain = 0
KNOR 251735Z 17004G9KT 32/16 A2997 RMK A01 T03210160  RH  040%=      5-min Rain = 0
KNOR 251740Z 21005G11KT 33/16 A2997 RMK A01 T03260164  RH  040%=      5-min Rain = 0
KNOR 251745Z 22004G9KT 32/16 A2997 RMK A01 T03230161  RH  040%=      5-min Rain = 0
KNOR 251750Z 21005G10KT 33/16 A2997 RMK A01 T03260159  RH  038%=      5-min Rain = 0
KNOR 251755Z 23004KT 33/16 A2997 RMK A01 T03250159  RH  039%=      5-min Rain = 0
KNOR 251800Z 15004KT 33/16 A2997 RMK A01 T03260156  RH  038%=      5-min Rain = 0
KNOR 251805Z 20004KT 32/16 A2996 RMK A01 T03240155  RH  038%=      5-min Rain = 0
KNOR 251810Z 21004G9KT 32/15 A2996 RMK A01 T03240154  RH  037%=      5-min Rain = 0
KNOR 251815Z 18006KT 33/16 A2996 RMK A01 T03310155  RH  037%=      5-min Rain = 0
KNOR 251820Z 18005KT 33/16 A2996 RMK A01 T03320156  RH  036%=      5-min Rain = 0
KNOR 251825Z 23005G10KT 33/15 A2996 RMK A01 T03320153  RH  036%=      5-min Rain = 0
KNOR 251830Z 20006KT 33/15 A2996 RMK A01 T03340154  RH  035%=      5-min Rain = 0
KNOR 251835Z 21004KT 33/15 A2996 RMK A01 T03330151  RH  035%=      5-min Rain = 0
KNOR 251840Z 13006G16KT 34/16 A2996 RMK A01 T03360158  RH  036%=      5-min Rain = 0
KNOR 251845Z 18007KT 34/16 A2996 RMK A01 T03380161  RH  036%=      5-min Rain = 0
KNOR 251850Z 16006KT 34/16 A2996 RMK A01 T03390156  RH  035%=      5-min Rain = 0
KNOR 251855Z 12005G10KT 34/15 A2996 RMK A01 T03360154  RH  035%=      5-min Rain = 0
KNOR 251900Z 14008G13KT 34/16 A2996 RMK A01 T03370159  RH  036%=      5-min Rain = 0
KNOR 251905Z 15008G14KT 34/16 A2996 RMK A01 T03400161  RH  036%=      5-min Rain = 0
KNOR 251910Z 14007KT 34/16 A2996 RMK A01 T03400160  RH  036%=      5-min Rain = 0
KNOR 251915Z 16010G17KT 34/16 A2996 RMK A01 T03400162  RH  036%=      5-min Rain = 0
KNOR 251920Z 15007G12KT 34/16 A2996 RMK A01 T03400164  RH  037%=      5-min Rain = 0
KNOR 251925Z 15007G14KT 34/16 A2996 RMK A01 T03390159  RH  036%=      5-min Rain = 0
KNOR 251930Z 15009G14KT 34/16 A2996 RMK A01 T03410160  RH  036%=      5-min Rain = 0
KNOR 251935Z 15007G13KT 34/16 A2995 RMK A01 T03410160  RH  036%=      5-min Rain = 0
KNOR 251940Z 14010G17KT 34/16 A2995 RMK A01 T03440158  RH  035%=      5-min Rain = 0
KNOR 251945Z 14009G15KT 34/16 A2995 RMK A01 T03440155  RH  034%=      5-min Rain = 0
KNOR 251950Z 15007G14KT 34/16 A2995 RMK A01 T03430158  RH  035%=      5-min Rain = 0
KNOR 251955Z 16013KT 34/16 A2995 RMK A01 T03430164  RH  036%=      5-min Rain = 0
KNOR 252000Z 15011G18KT 34/17 A2995 RMK A01 T03430169  RH  037%=      5-min Rain = 0
KNOR 252005Z 14011G19KT 34/17 A2995 RMK A01 T03430171  RH  038%=      5-min Rain = 0
KNOR 252010Z 15011G16KT 34/17 A2994 RMK A01 T03420170  RH  038%=      5-min Rain = 0
KNOR 252015Z 15012KT 34/17 A2994 RMK A01 T03440166  RH  036%=      5-min Rain = 0
KNOR 252020Z 15010G15KT 34/17 A2994 RMK A01 T03390165  RH  037%=      5-min Rain = 0
KNOR 252025Z 15009G16KT 34/17 A2994 RMK A01 T03420167  RH  037%=      5-min Rain = 0
KNOR 252030Z 14012KT 34/17 A2994 RMK A01 T03430167  RH  037%=      5-min Rain = 0
KNOR 252035Z 15011G17KT 34/17 A2994 RMK A01 T03410165  RH  037%=      5-min Rain = 0
KNOR 252040Z 15012G19KT 34/17 A2994 RMK A01 T03400169  RH  038%=      5-min Rain = 0
KNOR 252045Z 15013G19KT 34/17 A2993 RMK A01 T03400169  RH  038%=      5-min Rain = 0
KNOR 252050Z 13015G21KT 34/17 A2993 RMK A01 T03380167  RH  038%=      5-min Rain = 0
KNOR 252055Z 14013G18KT 34/17 A2993 RMK A01 T03380166  RH  038%=      5-min Rain = 0
KNOR 252100Z 14013G19KT 34/17 A2993 RMK A01 T03390165  RH  037%=      5-min Rain = 0
KNOR 252105Z 15013G20KT 34/17 A2993 RMK A01 T03410167  RH  037%=      5-min Rain = 0
KNOR 252110Z 15013KT 34/16 A2993 RMK A01 T03380164  RH  037%=      5-min Rain = 0
KNOR 252115Z 16013G19KT 34/16 A2992 RMK A01 T03390163  RH  037%=      5-min Rain = 0
KNOR 252120Z 15013G19KT 34/16 A2992 RMK A01 T03380163  RH  037%=      5-min Rain = 0
KNOR 252125Z 14013G19KT 34/16 A2992 RMK A01 T03360160  RH  037%=      5-min Rain = 0
KNOR 252130Z 15015G21KT 34/16 A2992 RMK A01 T03370161  RH  037%=      5-min Rain = 0
KNOR 252135Z 16014G19KT 34/16 A2992 RMK A01 T03390162  RH  036%=      5-min Rain = 0
KNOR 252140Z 15013G19KT 34/16 A2991 RMK A01 T03380162  RH  037%=      5-min Rain = 0
KNOR 252145Z 15013G19KT 34/16 A2991 RMK A01 T03390161  RH  036%=      5-min Rain = 0
KNOR 252150Z 16014G21KT 34/16 A2991 RMK A01 T03380156  RH  035%=      5-min Rain = 0
KNOR 252155Z 15014G20KT 34/16 A2991 RMK A01 T03370157  RH  036%=      5-min Rain = 0
KNOR 252200Z 15014G21KT 34/16 A2991 RMK A01 T03360155  RH  036%=      5-min Rain = 0
KNOR 252205Z 16015G22KT 34/16 A2991 RMK A01 T03360157  RH  036%=      5-min Rain = 0
KNOR 252210Z 16017G22KT 34/15 A2991 RMK A01 T03350152  RH  035%=      5-min Rain = 0
KNOR 252215Z 16014G21KT 34/15 A2991 RMK A01 T03350154  RH  036%=      5-min Rain = 0
KNOR 252220Z 14014G20KT 33/16 A2991 RMK A01 T03330156  RH  036%=      5-min Rain = 0
KNOR 252225Z 17014G21KT 34/16 A2991 RMK A01 T03350156  RH  036%=      5-min Rain = 0
KNOR 252230Z 15014G19KT 34/16 A2991 RMK A01 T03350156  RH  036%=      5-min Rain = 0
KNOR 252235Z 16014G19KT 34/16 A2991 RMK A01 T03370158  RH  036%=      5-min Rain = 0
KNOR 252240Z 17015G20KT 34/16 A299 RMK A01 T03360157  RH  036%=      5-min Rain = 0
KNOR 252245Z 16015G21KT 34/16 A299 RMK A01 T03350155  RH  036%=      5-min Rain = 0
KNOR 252250Z 16015G20KT 33/15 A2991 RMK A01 T03330150  RH  035%=      5-min Rain = 0
KNOR 252255Z 16016G24KT 33/15 A2991 RMK A01 T03310153  RH  036%=      5-min Rain = 0
KNOR 252300Z 16015G21KT 33/15 A299 RMK A01 T03320153  RH  036%=      5-min Rain = 0
KNOR 252305Z 15016G21KT 33/15 A299 RMK A01 T03310154  RH  036%=      5-min Rain = 0
KNOR 252310Z 16016G22KT 33/15 A2989 RMK A01 T03300152  RH  036%=      5-min Rain = 0
KNOR 252315Z 16017KT 33/15 A2989 RMK A01 T03300154  RH  036%=      5-min Rain = 0
KNOR 252320Z 16017G22KT 33/15 A299 RMK A01 T03280151  RH  036%=      5-min Rain = 0
KNOR 252325Z 16015G22KT 33/15 A299 RMK A01 T03290152  RH  036%=      5-min Rain = 0
KNOR 252330Z 16015G22KT 33/15 A2991 RMK A01 T03260152  RH  037%=      5-min Rain = 0
KNOR 252335Z 16014G20KT 32/15 A2991 RMK A01 T03190153  RH  038%=      5-min Rain = 0
KNOR 252340Z 16015G21KT 31/15 A2991 RMK A01 T03130150  RH  039%=      5-min Rain = 0
KNOR 252345Z 15014G19KT 31/14 A2991 RMK A01 T03100143  RH  038%=      5-min Rain = 0
KNOR 252350Z 15014G20KT 31/14 A2992 RMK A01 T03090138  RH  037%=      5-min Rain = 0
KNOR 252355Z 16012KT 31/14 A2992 RMK A01 T03070138  RH  037%=      5-min Rain = 0
KNOR 260000Z 15011KT 31/14 A2991 RMK A01 T03060142  RH  038%=      5-min Rain = 0
KNOR 260005Z 16012KT 30/15 A2991 RMK A01 T03040146  RH  040%=      5-min Rain = 0
KNOR 260010Z 15011G16KT 30/15 A2991 RMK A01 T03030146  RH  040%=      5-min Rain = 0
KNOR 260015Z 15011KT 30/14 A2992 RMK A01 T03030144  RH  040%=      5-min Rain = 0
KNOR 260020Z 14010KT 30/15 A2992 RMK A01 T03010145  RH  040%=      5-min Rain = 0
KNOR 260025Z 14008G13KT 30/15 A2993 RMK A01 T02990146  RH  041%=      5-min Rain = 0
KNOR 260030Z 13007KT 30/15 A2993 RMK A01 T02970146  RH  042%=      5-min Rain = 0
KNOR 260035Z 13005KT 30/15 A2993 RMK A01 T02950146  RH  042%=      5-min Rain = 0
KNOR 260040Z 13005KT 29/15 A2994 RMK A01 T02940147  RH  043%=      5-min Rain = 0
KNOR 260045Z 12005KT 29/15 A2995 RMK A01 T02930146  RH  043%=      5-min Rain = 0
KNOR 260050Z 09002KT 29/15 A2996 RMK A01 T02920147  RH  043%=      5-min Rain = 0
KNOR 260055Z 02002KT 29/15 A2997 RMK A01 T02900148  RH  044%=      5-min Rain = 0
KNOR 260100Z 34007KT 29/15 A2999 RMK A01 T02850150  RH  046%=      5-min Rain = 0
KNOR 260105Z 34012G19KT 29/15 A30 RMK A01 T02850148  RH  045%=      5-min Rain = 0
KNOR 260110Z 34015G20KT 28/12 A3001 RMK A01 T02770124  RH  040%=      5-min Rain = 0
KNOR 260115Z 34017G25KT 27/12 A3002 RMK A01 T02670117  RH  041%=      5-min Rain = 0
KNOR 260120Z 35018G26KT 26/12 A3001 RMK A01 T02640116  RH  041%=      5-min Rain = 0
KNOR 260125Z 00015G22KT 26/12 A3001 RMK A01 T02630118  RH  042%=      5-min Rain = 0
KNOR 260130Z 01013KT 26/12 A3001 RMK A01 T02630120  RH  043%=      5-min Rain = 0
KNOR 260135Z 01014KT 26/12 A3001 RMK A01 T02620122  RH  043%=      5-min Rain = 0
KNOR 260140Z 02011G16KT 26/12 A3002 RMK A01 T02610122  RH  044%=      5-min Rain = 0
KNOR 260145Z 02011G16KT 26/12 A3002 RMK A01 T02600121  RH  044%=      5-min Rain = 0
KNOR 260150Z 02013KT 26/12 A3002 RMK A01 T02620120  RH  043%=      5-min Rain = 0
KNOR 260155Z 03014G19KT 26/12 A3002 RMK A01 T02620120  RH  043%=      5-min Rain = 0
KNOR 260200Z 03012KT 26/12 A3003 RMK A01 T02600121  RH  043%=      5-min Rain = 0
KNOR 260205Z 02014G21KT 26/12 A3004 RMK A01 T02600119  RH  043%=      5-min Rain = 0
KNOR 260210Z 02012G17KT 26/12 A3005 RMK A01 T02610117  RH  042%=      5-min Rain = 0
KNOR 260215Z 02012KT 26/12 A3005 RMK A01 T02620115  RH  041%=      5-min Rain = 0
KNOR 260220Z 03012KT 26/11 A3005 RMK A01 T02630113  RH  041%=      5-min Rain = 0
KNOR 260225Z 03013G19KT 26/11 A3004 RMK A01 T02640113  RH  040%=      5-min Rain = 0
KNOR 260230Z 03014G19KT 27/11 A3004 RMK A01 T02660111  RH  039%=      5-min Rain = 0
KNOR 260235Z 03012G18KT 26/11 A3005 RMK A01 T02640110  RH  039%=      5-min Rain = 0
KNOR 260240Z 03014G20KT 26/11 A3005 RMK A01 T02630109  RH  040%=      5-min Rain = 0
KNOR 260245Z 03012G20KT 26/11 A3006 RMK A01 T02620107  RH  039%=      5-min Rain = 0
KNOR 260250Z 03012G18KT 26/11 A3006 RMK A01 T02630105  RH  038%=      5-min Rain = 0
KNOR 260255Z 03013G19KT 26/10 A3006 RMK A01 T02620103  RH  038%=      5-min Rain = 0
KNOR 260300Z 03013G22KT 26/10 A3006 RMK A01 T02610103  RH  038%=      5-min Rain = 0
KNOR 260305Z 03012G17KT 26/11 A3006 RMK A01 T02590105  RH  039%=      5-min Rain = 0
KNOR 260310Z 03012KT 26/11 A3006 RMK A01 T02590106  RH  040%=      5-min Rain = 0
KNOR 260315Z 04013KT 26/11 A3006 RMK A01 T02580106  RH  040%=      5-min Rain = 0
KNOR 260320Z 04012KT 26/11 A3005 RMK A01 T02570105  RH  040%=      5-min Rain = 0
KNOR 260325Z 04011KT 26/10 A3005 RMK A01 T02570103  RH  039%=      5-min Rain = 0
KNOR 260330Z 05008KT 26/10 A3005 RMK A01 T02590101  RH  038%=      5-min Rain = 0
KNOR 260335Z 07006KT 26/10 A3005 RMK A01 T02600098  RH  037%=      5-min Rain = 0
KNOR 260340Z 11004KT 26/10 A3006 RMK A01 T02610096  RH  036%=      5-min Rain = 0
KNOR 260345Z 14004KT 26/10 A3007 RMK A01 T02550104  RH  040%=      5-min Rain = 0
KNOR 260350Z 13001KT 25/10 A3008 RMK A01 T02540100  RH  039%=      5-min Rain = 0
KNOR 260355Z 24000KT 26/09 A3008 RMK A01 T02590091  RH  035%=      5-min Rain = 0
KNOR 260400Z 19002KT 26/09 A3007 RMK A01 T02600093  RH  036%=      5-min Rain = 0
KNOR 260405Z 19004KT 25/10 A3007 RMK A01 T02540099  RH  039%=      5-min Rain = 0
KNOR 260410Z 21003KT 25/10 A3007 RMK A01 T02510100  RH  040%=      5-min Rain = 0
KNOR 260415Z 16007KT 25/10 A3005 RMK A01 T02510101  RH  040%=      5-min Rain = 0
KNOR 260420Z 14013KT 26/09 A3002 RMK A01 T02560092  RH  037%=      5-min Rain = 0
KNOR 260425Z 14015KT 26/08 A30 RMK A01 T02640083  RH  033%=      5-min Rain = 0
KNOR 260430Z 14013KT 27/09 A2999 RMK A01 T02660085  RH  033%=      5-min Rain = 0
KNOR 260435Z 16010G17KT 28/10 A30 RMK A01 T02770100  RH  034%=      5-min Rain = 0
KNOR 260440Z 17007G13KT 28/10 A3001 RMK A01 T02770095  RH  033%=      5-min Rain = 0
KNOR 260445Z 15009KT 27/10 A3001 RMK A01 T02680096  RH  035%=      5-min Rain = 0
KNOR 260450Z 15008KT 26/10 A3001 RMK A01 T02580096  RH  037%=      5-min Rain = 0
KNOR 260455Z 15006G11KT 25/10 A3002 RMK A01 T02540099  RH  039%=      5-min Rain = 0

Page generated in 0.0092 seconds.